Terminal Aerodrome Forecast
Issued by NWS

Home | Current Version | Previous Version | Graphics & Text | Print | Product List | Glossary On
Versions: 1 2 3 4 5 6 7 8 9 10 11 12 13 14 15 16 17 18 19 20 21
397
FTUS43 KIWX 091121
TAFSBN
TAF
KSBN 091121Z 0912/1012 29010KT 4SM -SHSN OVC015
      TEMPO 0912/0916 1SM -SHSN OVC008
     FM091600 31014G20KT 4SM -SHSN OVC015
      TEMPO 0922/1002 1SM -SHSN OVC008
     FM100800 30015KT 3/4SM -SHSN BLSN VV006
      TEMPO 1008/1012 1/2SM SHSN BLSN VV003=

USA.gov is the U.S. government's official web portal to all federal, state and local government web resources and services.